Time;durP1;ratioP1;P1;durP2;ratioP2;P2;SDS_P1;SDS_P2;PMS_P1;PMS_P2;Temp;Humidity;BMP_temperature;BMP_pressure;BME280_temperature;BME280_humidity;BME280_pressure;Samples;Min_cycle;Max_cycle;Signal;HPM_P1;HPM_P2
2021/06/19 00:00:12;;;;;;;9.38;3.03;;;;;;;;;;10313826;28;21141;-70
2021/06/19 00:05:10;;;;;;;10.35;2.60;;;;;;;;;;10300624;28;20041;-70
2021/06/19 00:10:07;;;;;;;;;;;;;;;;;;10274832;28;20041;-71
2021/06/19 00:15:08;;;;;;;5.00;2.17;;;;;;;;;;10330120;28;19916;-71
2021/06/19 00:20:11;;;;;;;12.15;2.72;;;;;;;;;;10361564;28;20028;-69
2021/06/19 00:25:10;;;;;;;8.27;2.78;;;;;;;;;;10356527;28;20032;-70
2021/06/19 00:30:09;;;;;;;6.80;2.42;;;;;;;;;;10356564;28;20031;-71
2021/06/19 00:35:07;;;;;;;9.77;2.92;;;;;;;;;;10377180;28;20405;-71
2021/06/19 00:40:04;;;;;;;;;;;;;;;;;;10348664;28;20115;-71
2021/06/19 00:45:02;;;;;;;8.90;2.60;;;;;;;;;;10361798;28;19916;-70
2021/06/19 00:50:00;;;;;;;9.95;2.40;;;;;;;;;;10340962;28;20037;-69
2021/06/19 00:54:57;;;;;;;;;;;;;;;;;;10359311;28;20039;-70
2021/06/19 00:59:56;;;;;;;4.70;1.95;;;;;;;;;;10368990;28;20278;-70
2021/06/19 01:04:54;;;;;;;8.45;2.28;;;;;;;;;;10356989;28;20021;-71
2021/06/19 01:09:51;;;;;;;;;;;;;;;;;;10365418;28;20035;-72
2021/06/19 01:14:53;;;;;;;6.27;2.33;;;;;;;;;;10357142;28;20305;-73
2021/06/19 01:20:11;;;;;;;7.30;2.47;;;;;;;;;;10367105;28;20024;-72
2021/06/19 01:25:10;;;;;;;7.15;2.10;;;;;;;;;;10350154;28;20053;-69
2021/06/19 01:30:08;;;;;;;5.68;2.38;;;;;;;;;;10354141;28;20508;-72
2021/06/19 01:35:07;;;;;;;6.85;2.13;;;;;;;;;;10357713;28;20036;-72
2021/06/19 01:40:08;;;;;;;5.50;2.30;;;;;;;;;;10358250;28;20047;-71
2021/06/19 01:45:10;;;;;;;5.32;2.35;;;;;;;;;;10373588;28;20040;-72
2021/06/19 01:50:10;;;;;;;5.57;2.28;;;;;;;;;;10375574;28;20132;-72
2021/06/19 01:55:08;;;;;;;6.57;2.50;;;;;;;;;;10370826;28;20045;-72
2021/06/19 02:00:05;;;;;;;;;;;;;;;;;;10375277;28;20044;-71
2021/06/19 02:05:03;;;;;;;6.88;2.72;;;;;;;;;;10372575;28;19920;-72
2021/06/19 02:10:00;;;;;;;;;;;;;;;;;;10372586;28;20035;-71
2021/06/19 02:14:57;;;;;;;5.78;2.20;;;;;;;;;;10360665;28;20303;-71
2021/06/19 02:19:55;;;;;;;;;;;;;;;;;;10345467;28;20082;-71
2021/06/19 02:24:52;;;;;;;6.28;2.30;;;;;;;;;;10380911;28;19917;-71
2021/06/19 02:29:50;;;;;;;4.97;2.20;;;;;;;;;;10381238;28;20090;-72
2021/06/19 02:34:47;;;;;;;;;;;;;;;;;;10374858;28;20523;-70
2021/06/19 02:39:45;;;;;;;5.10;2.00;;;;;;;;;;10372089;28;20397;-70
2021/06/19 02:44:42;;;;;;;5.57;2.33;;;;;;;;;;10355208;28;20036;-70
2021/06/19 02:49:39;;;;;;;4.97;2.63;;;;;;;;;;10367347;28;20032;-70
2021/06/19 02:54:40;;;;;;;5.90;2.40;;;;;;;;;;10379387;28;20119;-70
2021/06/19 02:59:37;;;;;;;4.43;2.30;;;;;;;;;;10371609;28;20103;-71
2021/06/19 03:04:35;;;;;;;6.17;2.40;;;;;;;;;;10392471;28;20128;-71
2021/06/19 03:09:32;;;;;;;8.40;3.10;;;;;;;;;;10385156;28;20051;-71
2021/06/19 03:14:30;;;;;;;6.73;2.50;;;;;;;;;;10384383;28;20036;-71
2021/06/19 03:19:28;;;;;;;9.17;2.80;;;;;;;;;;10386997;28;20028;-70
2021/06/19 03:24:26;;;;;;;7.63;2.70;;;;;;;;;;10383912;28;20029;-71
2021/06/19 03:29:24;;;;;;;7.15;3.00;;;;;;;;;;10383147;28;20032;-71
2021/06/19 03:34:22;;;;;;;5.53;2.67;;;;;;;;;;10387413;28;20404;-72
2021/06/19 03:39:20;;;;;;;8.45;2.83;;;;;;;;;;10375724;28;20387;-70
2021/06/19 03:44:17;;;;;;;8.10;2.90;;;;;;;;;;10383038;28;20041;-69
2021/06/19 03:49:14;;;;;;;6.50;2.83;;;;;;;;;;10364008;28;20043;-69
2021/06/19 03:54:12;;;;;;;7.67;3.30;;;;;;;;;;10344818;28;20037;-70
2021/06/19 03:59:10;;;;;;;7.10;2.60;;;;;;;;;;10363483;28;20044;-69
2021/06/19 04:04:07;;;;;;;5.40;2.70;;;;;;;;;;10379923;28;20190;-69
2021/06/19 04:09:05;;;;;;;5.87;3.33;;;;;;;;;;10381538;28;20417;-71
2021/06/19 04:14:02;;;;;;;8.30;3.40;;;;;;;;;;10380084;28;20094;-71
2021/06/19 04:18:59;;;;;;;6.40;3.23;;;;;;;;;;10379283;28;20033;-71
2021/06/19 04:23:57;;;;;;;8.93;3.87;;;;;;;;;;10378366;28;20041;-71
2021/06/19 04:28:54;;;;;;;6.47;3.20;;;;;;;;;;10379396;28;20063;-71
2021/06/19 04:33:51;;;;;;;8.80;3.10;;;;;;;;;;10371673;28;20535;-71
2021/06/19 04:38:49;;;;;;;6.70;4.23;;;;;;;;;;10338010;28;20075;-71
2021/06/19 04:48:44;;;;;;;;;;;;;;;;;;10338213;28;20501;-71
2021/06/19 04:53:42;;;;;;;7.25;4.50;;;;;;;;;;10338032;28;19921;-70
2021/06/19 04:58:39;;;;;;;8.13;4.73;;;;;;;;;;10354882;28;20132;-71
2021/06/19 05:03:37;;;;;;;9.85;5.85;;;;;;;;;;10356864;28;20040;-71
2021/06/19 05:08:34;;;;;;;13.50;7.17;;;;;;;;;;10367879;28;20044;-71
2021/06/19 05:13:31;;;;;;;10.77;7.80;;;;;;;;;;10356461;28;20413;-70
2021/06/19 05:18:29;;;;;;;;;;;;;;;;;;10347094;28;20035;-70
2021/06/19 05:23:26;;;;;;;7.88;5.93;;;;;;;;;;10330215;28;19947;-72
2021/06/19 05:28:23;;;;;;;;;;;;;;;;;;10330921;28;20029;-70
2021/06/19 05:33:21;;;;;;;11.13;8.75;;;;;;;;;;10329207;28;19927;-70
2021/06/19 05:38:19;;;;;;;;;;;;;;;;;;10331899;28;20056;-69
2021/06/19 05:43:16;;;;;;;9.07;6.93;;;;;;;;;;10334849;28;19912;-70
2021/06/19 05:48:14;;;;;;;9.25;7.40;;;;;;;;;;10340786;28;20044;-71
2021/06/19 05:53:11;;;;;;;9.83;7.67;;;;;;;;;;10337791;28;20045;-70
2021/06/19 05:58:09;;;;;;;12.05;7.82;;;;;;;;;;10347742;28;20279;-69
2021/06/19 06:03:06;;;;;;;12.35;8.50;;;;;;;;;;10354966;28;20104;-71
2021/06/19 06:08:04;;;;;;;13.40;8.85;;;;;;;;;;10354957;28;20037;-71
2021/06/19 06:13:03;;;;;;;8.33;7.33;;;;;;;;;;10348542;28;20033;-72
2021/06/19 06:18:01;;;;;;;11.45;7.80;;;;;;;;;;10350909;28;20413;-71
2021/06/19 06:22:58;;;;;;;9.32;7.28;;;;;;;;;;10346234;28;20039;-71
2021/06/19 06:27:55;;;;;;;11.05;6.03;;;;;;;;;;10351298;28;20095;-71
2021/06/19 06:32:53;;;;;;;8.67;6.10;;;;;;;;;;10332913;28;20033;-71
2021/06/19 06:37:50;;;;;;;9.17;5.27;;;;;;;;;;10367986;28;20033;-72
2021/06/19 06:42:48;;;;;;;8.43;6.23;;;;;;;;;;10365702;28;20032;-72
2021/06/19 06:47:45;;;;;;;6.73;5.10;;;;;;;;;;10340504;28;20128;-71
2021/06/19 06:52:42;;;;;;;6.32;5.45;;;;;;;;;;10354044;28;20287;-69
2021/06/19 06:57:40;;;;;;;5.65;4.47;;;;;;;;;;10360494;28;20028;-70
2021/06/19 07:02:41;;;;;;;5.70;4.57;;;;;;;;;;10353707;28;20123;-70
2021/06/19 07:07:39;;;;;;;8.48;5.07;;;;;;;;;;10366508;28;20044;-70
2021/06/19 07:12:37;;;;;;;5.53;3.35;;;;;;;;;;10331276;28;20089;-70
2021/06/19 07:17:36;;;;;;;5.38;4.47;;;;;;;;;;10357023;28;20037;-70
2021/06/19 07:22:34;;;;;;;5.55;4.93;;;;;;;;;;10331869;28;20556;-70
2021/06/19 07:27:31;;;;;;;6.25;4.70;;;;;;;;;;10346237;28;20123;-69
2021/06/19 07:32:28;;;;;;;6.53;4.50;;;;;;;;;;10348731;28;20106;-69
2021/06/19 07:37:26;;;;;;;4.67;3.80;;;;;;;;;;10350201;28;20425;-70
2021/06/19 07:42:23;;;;;;;7.53;4.73;;;;;;;;;;10342801;28;20033;-70
2021/06/19 07:47:21;;;;;;;8.67;5.80;;;;;;;;;;10339550;28;20283;-70
2021/06/19 07:52:18;;;;;;;4.33;3.77;;;;;;;;;;10334796;28;20044;-69
2021/06/19 07:57:15;;;;;;;8.93;4.27;;;;;;;;;;10328057;28;20294;-70
2021/06/19 08:02:13;;;;;;;6.37;3.83;;;;;;;;;;10327001;28;20045;-70
2021/06/19 08:07:10;;;;;;;8.13;4.55;;;;;;;;;;10333425;28;20537;-69
2021/06/19 08:12:08;;;;;;;5.27;3.37;;;;;;;;;;10334704;28;20528;-70
2021/06/19 08:17:15;;;;;;;7.50;3.45;;;;;;;;;;10330037;28;20047;-69
2021/06/19 08:22:13;;;;;;;8.90;3.85;;;;;;;;;;10347809;28;20043;-69
2021/06/19 08:27:10;;;;;;;4.82;3.65;;;;;;;;;;10352575;28;20045;-69
2021/06/19 08:32:08;;;;;;;7.17;4.80;;;;;;;;;;10352954;28;20041;-69
2021/06/19 08:37:06;;;;;;;4.75;4.35;;;;;;;;;;10347803;28;20410;-70
2021/06/19 08:42:04;;;;;;;5.45;4.00;;;;;;;;;;10339931;28;20469;-70
2021/06/19 08:47:01;;;;;;;8.18;3.90;;;;;;;;;;10339755;28;20056;-69
2021/06/19 08:52:00;;;;;;;5.80;4.60;;;;;;;;;;10324766;28;20036;-70
2021/06/19 08:56:57;;;;;;;6.15;3.72;;;;;;;;;;10353411;28;20040;-70
2021/06/19 09:01:54;;;;;;;4.30;3.67;;;;;;;;;;10324177;28;20037;-70
2021/06/19 09:06:53;;;;;;;4.70;3.40;;;;;;;;;;10350944;28;20052;-69
2021/06/19 09:11:53;;;;;;;4.32;3.70;;;;;;;;;;10358951;28;20224;-69
2021/06/19 09:17:00;;;;;;;4.97;3.20;;;;;;;;;;10359221;28;20058;-70
2021/06/19 09:22:16;;;;;;;4.57;2.67;;;;;;;;;;10341223;28;20305;-70
2021/06/19 09:27:29;;;;;;;4.87;2.47;;;;;;;;;;10334872;28;20033;-70
2021/06/19 09:32:26;;;;;;;5.22;2.88;;;;;;;;;;10337310;28;20123;-69
2021/06/19 09:37:35;;;;;;;2.40;2.20;;;;;;;;;;10356211;28;20040;-69
2021/06/19 09:42:33;;;;;;;2.33;2.13;;;;;;;;;;10334053;28;20437;-70
2021/06/19 09:47:41;;;;;;;5.00;2.53;;;;;;;;;;10347891;28;20277;-71
2021/06/19 09:52:38;;;;;;;3.67;2.35;;;;;;;;;;10328417;28;20050;-70
2021/06/19 09:57:39;;;;;;;7.47;2.90;;;;;;;;;;10342438;28;20047;-71
2021/06/19 10:02:36;;;;;;;5.55;2.75;;;;;;;;;;10330447;28;20068;-68
2021/06/19 10:07:36;;;;;;;7.32;2.70;;;;;;;;;;10362971;28;20064;-69
2021/06/19 10:12:34;;;;;;;2.60;2.13;;;;;;;;;;10320448;28;20044;-71
2021/06/19 10:17:35;;;;;;;3.55;2.65;;;;;;;;;;10326199;28;20744;-69
2021/06/19 10:22:35;;;;;;;3.83;2.63;;;;;;;;;;10316005;28;20510;-70
2021/06/19 10:27:33;;;;;;;2.85;2.33;;;;;;;;;;10346707;28;20346;-69
2021/06/19 10:32:47;;;;;;;2.97;2.67;;;;;;;;;;10355117;28;20420;-69
2021/06/19 10:37:45;;;;;;;3.25;2.45;;;;;;;;;;10347321;28;20036;-70
2021/06/19 10:42:43;;;;;;;3.42;2.78;;;;;;;;;;10326258;28;20056;-69
2021/06/19 10:47:59;;;;;;;3.22;2.78;;;;;;;;;;10362314;28;20241;-70
2021/06/19 10:53:03;;;;;;;2.70;2.33;;;;;;;;;;10343583;28;20049;-69
2021/06/19 10:58:03;;;;;;;3.25;2.80;;;;;;;;;;10318340;28;20036;-70
2021/06/19 11:03:04;;;;;;;2.50;2.30;;;;;;;;;;10346685;28;20269;-70
2021/06/19 11:08:01;;;;;;;2.72;2.53;;;;;;;;;;10344353;28;20175;-70
2021/06/19 11:13:19;;;;;;;4.03;2.40;;;;;;;;;;10353978;28;20240;-69
2021/06/19 11:18:36;;;;;;;3.13;2.42;;;;;;;;;;10345707;28;20064;-69
2021/06/19 11:23:53;;;;;;;2.50;2.30;;;;;;;;;;10344479;28;20398;-70
2021/06/19 11:28:51;;;;;;;3.45;2.50;;;;;;;;;;10349657;28;20056;-70
2021/06/19 11:33:50;;;;;;;3.43;3.07;;;;;;;;;;10348697;28;20051;-70
2021/06/19 11:38:58;;;;;;;2.78;2.38;;;;;;;;;;10340185;28;20698;-69
2021/06/19 11:43:55;;;;;;;4.13;2.97;;;;;;;;;;10339167;28;20041;-67
2021/06/19 11:48:54;;;;;;;3.05;2.65;;;;;;;;;;10352532;28;20074;-68
2021/06/19 11:53:52;;;;;;;2.08;1.98;;;;;;;;;;10351825;28;20697;-66
2021/06/19 11:58:52;;;;;;;3.58;2.45;;;;;;;;;;10351788;28;20048;-68
2021/06/19 12:03:50;;;;;;;5.85;2.90;;;;;;;;;;10358755;28;20596;-67
2021/06/19 12:08:47;;;;;;;3.15;2.47;;;;;;;;;;10355635;28;20036;-66
2021/06/19 12:13:45;;;;;;;4.23;2.60;;;;;;;;;;10356931;28;20041;-68
2021/06/19 12:18:47;;;;;;;3.03;2.72;;;;;;;;;;10343364;28;20543;-68
2021/06/19 12:23:45;;;;;;;3.10;2.75;;;;;;;;;;10356486;28;20473;-70
2021/06/19 12:28:47;;;;;;;3.08;2.78;;;;;;;;;;10351520;28;20072;-70
2021/06/19 12:33:44;;;;;;;3.35;3.05;;;;;;;;;;10357107;28;21344;-70
2021/06/19 12:38:45;;;;;;;4.47;2.60;;;;;;;;;;10333906;28;21181;-70
2021/06/19 12:43:49;;;;;;;4.57;2.60;;;;;;;;;;10351510;28;20155;-70
2021/06/19 12:48:47;;;;;;;3.67;2.50;;;;;;;;;;10342452;28;20033;-70
2021/06/19 12:53:44;;;;;;;4.28;2.45;;;;;;;;;;10355566;28;20561;-69
2021/06/19 12:58:42;;;;;;;4.10;2.80;;;;;;;;;;10361526;28;20056;-69
2021/06/19 13:03:40;;;;;;;3.47;2.53;;;;;;;;;;10348194;28;20179;-70
2021/06/19 13:08:37;;;;;;;5.00;3.10;;;;;;;;;;10340072;28;20157;-68
2021/06/19 13:13:40;;;;;;;3.70;2.70;;;;;;;;;;10361213;28;20047;-70
2021/06/19 13:18:48;;;;;;;3.55;3.10;;;;;;;;;;10341751;28;20097;-69
2021/06/19 13:23:45;;;;;;;3.15;2.60;;;;;;;;;;10356759;28;20045;-69
2021/06/19 13:28:51;;;;;;;4.07;2.92;;;;;;;;;;10355012;28;20041;-69
2021/06/19 13:33:50;;;;;;;2.65;2.42;;;;;;;;;;10344234;28;20051;-70
2021/06/19 13:38:52;;;;;;;2.70;2.50;;;;;;;;;;10359937;28;20486;-67
2021/06/19 13:43:49;;;;;;;2.95;2.67;;;;;;;;;;10343148;28;20036;-69
2021/06/19 13:48:47;;;;;;;3.80;2.43;;;;;;;;;;10363925;28;20051;-69
2021/06/19 13:53:45;;;;;;;3.97;2.80;;;;;;;;;;10350479;28;20045;-69
2021/06/19 13:58:43;;;;;;;2.97;2.35;;;;;;;;;;10367178;28;20414;-69
2021/06/19 14:03:41;;;;;;;4.60;2.37;;;;;;;;;;10356927;28;20053;-69
2021/06/19 14:08:43;;;;;;;4.13;2.72;;;;;;;;;;10357643;28;20326;-70
2021/06/19 14:13:41;;;;;;;7.55;4.43;;;;;;;;;;10353598;28;20029;-70
2021/06/19 14:18:39;;;;;;;27.48;8.70;;;;;;;;;;10359925;28;20029;-70
2021/06/19 14:23:38;;;;;;;21.48;7.20;;;;;;;;;;10360289;28;20373;-70
2021/06/19 14:28:36;;;;;;;16.52;6.35;;;;;;;;;;10370168;28;20397;-69
2021/06/19 14:33:34;;;;;;;11.15;5.00;;;;;;;;;;10356791;28;20070;-70
2021/06/19 14:38:32;;;;;;;13.02;4.20;;;;;;;;;;10357692;28;20678;-69
2021/06/19 14:43:29;;;;;;;9.48;4.32;;;;;;;;;;10349823;28;20029;-69
2021/06/19 14:48:27;;;;;;;6.80;3.17;;;;;;;;;;10348290;28;20041;-69
2021/06/19 14:53:25;;;;;;;6.00;2.73;;;;;;;;;;10351784;28;20055;-69
2021/06/19 14:58:22;;;;;;;5.18;2.40;;;;;;;;;;10351137;28;20359;-70
2021/06/19 15:03:20;;;;;;;4.03;2.67;;;;;;;;;;10358194;28;20414;-68
2021/06/19 15:08:17;;;;;;;3.28;2.20;;;;;;;;;;10358281;28;20124;-68
2021/06/19 15:13:19;;;;;;;3.63;1.93;;;;;;;;;;10357850;28;20067;-69
2021/06/19 15:18:16;;;;;;;3.67;2.55;;;;;;;;;;10353588;28;20442;-69
2021/06/19 15:23:14;;;;;;;3.45;1.65;;;;;;;;;;10369993;28;20318;-69
2021/06/19 15:28:12;;;;;;;4.15;1.52;;;;;;;;;;10351306;28;20056;-68
2021/06/19 15:33:10;;;;;;;1.65;1.48;;;;;;;;;;10342187;28;20050;-69
2021/06/19 15:38:07;;;;;;;4.10;1.40;;;;;;;;;;10357915;28;20048;-69
2021/06/19 15:43:05;;;;;;;3.35;1.60;;;;;;;;;;10354309;28;20037;-70
2021/06/19 15:48:02;;;;;;;2.15;1.60;;;;;;;;;;10352711;28;20037;-69
2021/06/19 15:53:00;;;;;;;2.38;1.00;;;;;;;;;;10345047;28;20709;-69
2021/06/19 15:57:57;;;;;;;2.40;1.10;;;;;;;;;;10356889;28;20644;-69
2021/06/19 16:02:55;;;;;;;2.70;1.20;;;;;;;;;;10366909;28;20410;-69
2021/06/19 16:07:52;;;;;;;3.03;1.23;;;;;;;;;;10362841;28;20271;-69
2021/06/19 16:12:50;;;;;;;2.00;1.13;;;;;;;;;;10360060;28;20045;-70
2021/06/19 16:17:47;;;;;;;3.42;1.55;;;;;;;;;;10356423;28;20281;-71
2021/06/19 16:22:45;;;;;;;3.63;1.10;;;;;;;;;;10356874;28;20058;-70
2021/06/19 16:27:42;;;;;;;2.25;1.17;;;;;;;;;;10353648;28;20059;-69
2021/06/19 16:32:39;;;;;;;4.37;1.20;;;;;;;;;;10357724;28;20098;-69
2021/06/19 16:37:37;;;;;;;3.53;1.25;;;;;;;;;;10354514;28;20038;-70
2021/06/19 16:42:34;;;;;;;1.53;0.90;;;;;;;;;;10348145;28;20051;-69
2021/06/19 16:47:41;;;;;;;3.40;1.50;;;;;;;;;;10325266;28;20032;-70
2021/06/19 16:52:40;;;;;;;3.10;1.50;;;;;;;;;;10355166;28;20041;-69
2021/06/19 16:57:38;;;;;;;3.00;1.67;;;;;;;;;;10343627;28;20041;-69
2021/06/19 17:02:35;;;;;;;3.17;1.58;;;;;;;;;;10363271;28;20024;-69
2021/06/19 17:07:32;;;;;;;2.63;1.93;;;;;;;;;;10338128;28;20028;-70
2021/06/19 17:12:30;;;;;;;2.47;1.70;;;;;;;;;;10361969;28;20103;-70
2021/06/19 17:17:29;;;;;;;3.08;1.77;;;;;;;;;;10351635;28;21125;-68
2021/06/19 17:22:27;;;;;;;2.85;2.10;;;;;;;;;;10360087;28;20021;-70
2021/06/19 17:27:25;;;;;;;3.58;2.13;;;;;;;;;;10354517;28;20017;-70
2021/06/19 17:32:22;;;;;;;3.37;2.20;;;;;;;;;;10361971;28;20036;-69
2021/06/19 17:37:24;;;;;;;3.33;2.43;;;;;;;;;;10360868;28;20020;-72
2021/06/19 17:42:21;;;;;;;6.07;2.72;;;;;;;;;;10361636;28;20051;-70
2021/06/19 17:47:18;;;;;;;5.13;2.97;;;;;;;;;;10360809;28;20397;-70
2021/06/19 17:52:16;;;;;;;4.47;2.93;;;;;;;;;;10354155;28;20287;-69
2021/06/19 17:57:18;;;;;;;4.80;3.03;;;;;;;;;;10350175;28;20045;-70
2021/06/19 18:02:15;;;;;;;10.10;3.70;;;;;;;;;;10329668;28;20097;-70
2021/06/19 18:07:13;;;;;;;6.87;3.40;;;;;;;;;;10358384;28;20109;-71
2021/06/19 18:12:10;;;;;;;7.13;4.23;;;;;;;;;;10343727;28;20326;-68
2021/06/19 18:17:07;;;;;;;5.40;3.72;;;;;;;;;;10361251;28;20120;-69
2021/06/19 18:22:05;;;;;;;6.60;4.07;;;;;;;;;;10365661;28;20045;-68
2021/06/19 18:27:03;;;;;;;5.67;4.20;;;;;;;;;;10363902;28;20040;-70
2021/06/19 18:32:01;;;;;;;6.32;4.10;;;;;;;;;;10341631;28;20696;-70
2021/06/19 18:36:59;;;;;;;6.53;3.67;;;;;;;;;;10350460;28;20049;-70
2021/06/19 18:41:57;;;;;;;5.75;3.90;;;;;;;;;;10362942;28;20076;-70
2021/06/19 18:46:54;;;;;;;6.03;4.03;;;;;;;;;;10346756;28;20070;-69
2021/06/19 18:51:52;;;;;;;6.80;4.47;;;;;;;;;;10362139;28;20049;-70
2021/06/19 18:56:49;;;;;;;9.27;4.73;;;;;;;;;;10354508;28;20510;-69
2021/06/19 19:01:47;;;;;;;6.35;4.32;;;;;;;;;;10349399;28;20182;-69
2021/06/19 19:06:44;;;;;;;6.53;4.05;;;;;;;;;;10349058;28;20051;-70
2021/06/19 19:11:42;;;;;;;7.37;4.70;;;;;;;;;;10357402;28;20513;-69
2021/06/19 19:16:40;;;;;;;8.57;4.57;;;;;;;;;;10367803;28;20282;-69
2021/06/19 19:21:38;;;;;;;7.35;4.40;;;;;;;;;;10354073;28;20044;-70
2021/06/19 19:26:36;;;;;;;5.35;4.38;;;;;;;;;;10360222;28;20482;-70
2021/06/19 19:31:34;;;;;;;7.28;4.63;;;;;;;;;;10362093;28;20040;-70
2021/06/19 19:36:31;;;;;;;7.40;4.95;;;;;;;;;;10355262;28;20044;-72
2021/06/19 19:41:30;;;;;;;7.20;4.82;;;;;;;;;;10357442;28;20033;-69
2021/06/19 19:46:27;;;;;;;7.22;4.88;;;;;;;;;;10355535;28;20071;-70
2021/06/19 19:51:25;;;;;;;7.03;5.28;;;;;;;;;;10361235;28;20127;-70
2021/06/19 19:56:23;;;;;;;7.60;4.82;;;;;;;;;;10324920;28;21285;-70
2021/06/19 20:01:21;;;;;;;7.43;5.40;;;;;;;;;;10358217;28;20040;-69
2021/06/19 20:06:18;;;;;;;6.97;4.60;;;;;;;;;;10363876;28;20044;-69
2021/06/19 20:11:16;;;;;;;6.03;4.93;;;;;;;;;;10341766;28;20131;-70
2021/06/19 20:16:15;;;;;;;6.30;4.35;;;;;;;;;;10355160;28;20648;-70
2021/06/19 20:21:13;;;;;;;7.40;4.80;;;;;;;;;;10354685;28;20036;-71
2021/06/19 20:26:10;;;;;;;6.35;5.32;;;;;;;;;;10358445;28;20032;-70
2021/06/19 20:31:08;;;;;;;6.43;4.38;;;;;;;;;;10354696;28;20493;-68
2021/06/19 20:36:05;;;;;;;5.13;4.55;;;;;;;;;;10326338;28;20129;-68
2021/06/19 20:41:03;;;;;;;5.68;4.43;;;;;;;;;;10353169;28;20352;-69
2021/06/19 20:46:01;;;;;;;7.40;4.70;;;;;;;;;;10356187;28;20033;-68
2021/06/19 20:50:58;;;;;;;6.18;4.65;;;;;;;;;;10345023;28;20384;-69
2021/06/19 20:55:56;;;;;;;;;;;;;;;;;;10342632;28;20051;-66
2021/06/19 21:00:53;;;;;;;6.38;4.68;;;;;;;;;;10335421;28;20385;-68
2021/06/19 21:05:50;;;;;;;7.20;5.00;;;;;;;;;;10347019;28;20041;-70
2021/06/19 21:10:48;;;;;;;;;;;;;;;;;;10316305;28;20288;-70
2021/06/19 21:15:47;;;;;;;6.50;4.80;;;;;;;;;;10349026;28;20369;-70
2021/06/19 21:20:45;;;;;;;5.50;5.00;;;;;;;;;;10345736;28;20120;-70
2021/06/19 21:25:42;;;;;;;;;;;;;;;;;;10350717;28;20469;-69
2021/06/19 21:30:40;;;;;;;6.40;4.90;;;;;;;;;;10322514;28;19916;-70
2021/06/19 21:35:37;;;;;;;;;;;;;;;;;;10342635;28;20594;-70
2021/06/19 21:40:35;;;;;;;7.05;4.88;;;;;;;;;;10317636;28;20373;-71
2021/06/19 21:45:32;;;;;;;;;;;;;;;;;;10358589;28;20032;-72
2021/06/19 21:50:30;;;;;;;6.60;4.95;;;;;;;;;;10364009;28;19923;-70
2021/06/19 21:55:28;;;;;;;;;;;;;;;;;;10363613;28;20040;-71
2021/06/19 22:00:30;;;;;;;6.87;5.40;;;;;;;;;;10335721;28;19912;-71
2021/06/19 22:05:28;;;;;;;8.00;5.30;;;;;;;;;;10361864;28;20314;-71
2021/06/19 22:10:28;;;;;;;5.45;4.85;;;;;;;;;;10333885;28;20067;-69
2021/06/19 22:15:26;;;;;;;8.07;4.90;;;;;;;;;;10341502;28;20068;-71
2021/06/19 22:20:24;;;;;;;6.72;4.85;;;;;;;;;;10366397;28;20506;-70
2021/06/19 22:25:21;;;;;;;5.55;4.53;;;;;;;;;;10339788;28;20390;-71
2021/06/19 22:30:20;;;;;;;5.20;4.70;;;;;;;;;;10344325;28;20033;-71
2021/06/19 22:35:20;;;;;;;5.15;4.65;;;;;;;;;;10362057;28;20157;-70
2021/06/19 22:40:19;;;;;;;5.82;4.90;;;;;;;;;;10317847;28;20033;-68
2021/06/19 22:45:17;;;;;;;7.07;5.13;;;;;;;;;;10372761;28;20458;-69
2021/06/19 22:50:16;;;;;;;7.05;4.90;;;;;;;;;;10349939;28;20063;-69
2021/06/19 22:55:13;;;;;;;;;;;;;;;;;;10354379;28;20032;-69
2021/06/19 23:00:11;;;;;;;6.67;4.80;;;;;;;;;;10348175;28;19912;-68
2021/06/19 23:05:09;;;;;;;6.63;4.70;;;;;;;;;;10336899;28;20040;-69
2021/06/19 23:10:07;;;;;;;6.10;4.37;;;;;;;;;;10365901;28;20551;-69
2021/06/19 23:15:06;;;;;;;7.00;4.93;;;;;;;;;;10321676;28;20036;-69
2021/06/19 23:20:03;;;;;;;;;;;;;;;;;;10352980;28;20033;-69
2021/06/19 23:25:01;;;;;;;5.22;4.75;;;;;;;;;;10352870;28;20118;-69
2021/06/19 23:29:58;;;;;;;5.80;4.97;;;;;;;;;;10363398;28;20033;-69
2021/06/19 23:34:55;;;;;;;5.47;4.10;;;;;;;;;;10350130;28;20051;-69
2021/06/19 23:39:53;;;;;;;4.70;4.23;;;;;;;;;;10363041;28;20029;-68
2021/06/19 23:44:50;;;;;;;5.27;4.30;;;;;;;;;;10368137;28;20036;-69
2021/06/19 23:49:48;;;;;;;5.83;4.80;;;;;;;;;;10352165;28;20296;-70
2021/06/19 23:55:08;;;;;;;5.80;4.90;;;;;;;;;;10363296;28;20091;-70
